Time;durP1;ratioP1;P1;durP2;ratioP2;P2;SDS_P1;SDS_P2;PMS_P1;PMS_P2;Temp;Humidity;BMP_temperature;BMP_pressure;BME280_temperature;BME280_humidity;BME280_pressure;Samples;Min_cycle;Max_cycle;Signal;HPM_P1;HPM_P2
2024/03/18 00:00:16;;;;;;;3.23;2.00;;;8.80;99.90;;;;;;2070567;28;20177;-71
2024/03/18 00:01:17;;;;;;;3.38;2.22;;;8.80;99.90;;;;;;2066913;28;20194;-71
2024/03/18 00:02:18;;;;;;;5.00;1.73;;;8.80;99.90;;;;;;2067062;28;20181;-71
2024/03/18 00:03:20;;;;;;;3.10;2.27;;;8.80;99.90;;;;;;2069987;28;20667;-71
2024/03/18 00:04:20;;;;;;;2.13;1.92;;;8.80;99.90;;;;;;2068895;28;20198;-70
2024/03/18 00:05:22;;;;;;;4.13;2.60;;;8.80;99.90;;;;;;2066696;28;20651;-70
2024/03/18 00:06:22;;;;;;;3.42;1.80;;;8.80;99.90;;;;;;2071717;28;20256;-70
2024/03/18 00:07:23;;;;;;;2.40;2.20;;;8.80;99.90;;;;;;2065486;28;20229;-72
2024/03/18 00:08:24;;;;;;;4.65;1.83;;;8.80;99.90;;;;;;2065283;28;20240;-71
2024/03/18 00:09:25;;;;;;;3.07;1.97;;;8.80;99.90;;;;;;2073514;28;20304;-70
2024/03/18 00:10:27;;;;;;;3.45;1.70;;;8.90;99.90;;;;;;2071290;28;20258;-71
2024/03/18 00:11:27;;;;;;;3.63;2.13;;;8.80;99.90;;;;;;2073793;28;20240;-71
2024/03/18 00:12:28;;;;;;;2.57;1.80;;;8.90;99.90;;;;;;2070909;28;20836;-71
2024/03/18 00:13:28;;;;;;;3.10;2.27;;;8.90;99.90;;;;;;2072841;28;20233;-72
2024/03/18 00:14:29;;;;;;;3.00;1.80;;;8.90;99.90;;;;;;2065071;28;20225;-73
2024/03/18 00:15:30;;;;;;;3.43;2.13;;;9.00;99.90;;;;;;2065327;28;20233;-72
2024/03/18 00:16:31;;;;;;;2.83;1.97;;;9.00;99.90;;;;;;2064715;28;20296;-72
2024/03/18 00:17:32;;;;;;;2.40;2.00;;;9.10;99.90;;;;;;2057133;28;20233;-71
2024/03/18 00:18:32;;;;;;;3.45;1.98;;;9.10;99.90;;;;;;2065255;28;20230;-70
2024/03/18 00:19:33;;;;;;;3.70;1.83;;;9.10;99.90;;;;;;2070237;28;20229;-73
2024/03/18 00:20:34;;;;;;;2.40;1.90;;;9.00;99.90;;;;;;2078497;28;20220;-73
2024/03/18 00:21:36;;;;;;;2.87;2.00;;;9.00;99.90;;;;;;2071058;28;20247;-73
2024/03/18 00:22:41;;;;;;;6.05;2.30;;;9.00;99.90;;;;;;2072586;28;20219;-73
2024/03/18 00:23:41;;;;;;;7.20;2.20;;;9.10;99.90;;;;;;2057646;28;20230;-73
2024/03/18 00:24:42;;;;;;;3.50;2.00;;;9.10;99.90;;;;;;2057783;28;20223;-73
2024/03/18 00:25:43;;;;;;;3.07;1.80;;;9.10;99.90;;;;;;2073697;28;20217;-73
2024/03/18 00:26:43;;;;;;;3.30;1.80;;;9.10;99.90;;;;;;2072866;28;20362;-73
2024/03/18 00:27:44;;;;;;;5.63;2.73;;;9.10;99.90;;;;;;2057288;28;20314;-73
2024/03/18 00:28:45;;;;;;;4.37;1.80;;;9.10;99.90;;;;;;2062617;28;20265;-74
2024/03/18 00:29:45;;;;;;;2.87;1.80;;;9.10;99.90;;;;;;2074278;28;20320;-73
2024/03/18 00:30:46;;;;;;;2.80;1.90;;;9.10;99.90;;;;;;2074075;28;20232;-73
2024/03/18 00:31:47;;;;;;;2.33;2.03;;;9.00;99.90;;;;;;2072977;28;20225;-73
2024/03/18 00:32:47;;;;;;;2.67;2.03;;;9.00;99.90;;;;;;2071171;28;20229;-73
2024/03/18 00:33:50;;;;;;;3.30;2.00;;;9.00;99.90;;;;;;2074378;28;20225;-73
2024/03/18 00:34:51;;;;;;;3.20;2.08;;;9.00;99.90;;;;;;2065677;28;20673;-74
2024/03/18 00:35:56;;;;;;;4.28;2.58;;;9.00;99.90;;;;;;2074908;28;20625;-73
2024/03/18 00:36:57;;;;;;;2.20;1.88;;;9.00;99.90;;;;;;2073675;28;20360;-73
2024/03/18 00:37:58;;;;;;;2.37;1.80;;;9.00;99.90;;;;;;2071211;28;20308;-74
2024/03/18 00:38:58;;;;;;;3.77;2.20;;;9.00;99.90;;;;;;2065386;28;20656;-74
2024/03/18 00:39:59;;;;;;;2.93;1.73;;;9.10;99.90;;;;;;2067101;28;20242;-73
2024/03/18 00:42:19;;;;;;;2.53;2.00;;;9.10;99.90;;;;;;2075830;28;20710;-73
2024/03/18 00:43:20;;;;;;;3.47;2.07;;;9.10;99.90;;;;;;2077567;28;20299;-74
2024/03/18 00:44:23;;;;;;;4.13;1.60;;;9.10;99.90;;;;;;2076441;28;20236;-73
2024/03/18 00:45:23;;;;;;;2.78;1.70;;;9.10;99.90;;;;;;2074591;28;20224;-73
2024/03/18 00:46:24;;;;;;;6.77;2.00;;;9.10;99.90;;;;;;2074125;28;20647;-73
2024/03/18 00:47:25;;;;;;;3.17;1.90;;;9.10;99.90;;;;;;2078818;28;20232;-73
2024/03/18 00:48:25;;;;;;;4.03;2.13;;;9.10;99.90;;;;;;2073811;28;20233;-73
2024/03/18 00:49:26;;;;;;;2.87;2.00;;;9.10;99.90;;;;;;2078585;28;20235;-73
2024/03/18 00:50:27;;;;;;;3.67;1.90;;;9.10;99.90;;;;;;2081545;28;20677;-74
2024/03/18 00:51:28;;;;;;;4.47;2.28;;;9.10;99.90;;;;;;2057504;28;20233;-73
2024/03/18 00:52:28;;;;;;;3.77;2.03;;;9.10;99.90;;;;;;2058837;28;20250;-74
2024/03/18 00:53:29;;;;;;;4.20;1.90;;;9.00;99.90;;;;;;2076092;28;20229;-73
2024/03/18 00:54:30;;;;;;;3.43;2.10;;;9.00;99.90;;;;;;2073612;28;20706;-74
2024/03/18 00:55:33;;;;;;;4.23;1.73;;;9.00;99.90;;;;;;2065448;28;20240;-74
2024/03/18 00:56:35;;;;;;;2.75;1.90;;;9.00;99.90;;;;;;2074752;28;20226;-73
2024/03/18 00:57:37;;;;;;;4.22;2.20;;;9.10;99.90;;;;;;2071368;28;20316;-73
2024/03/18 00:58:39;;;;;;;3.88;2.08;;;9.00;99.90;;;;;;2074126;28;20917;-73
2024/03/18 00:59:40;;;;;;;2.78;1.83;;;9.00;99.90;;;;;;2066183;28;20704;-73
2024/03/18 01:00:41;;;;;;;4.00;1.50;;;8.90;99.90;;;;;;2057575;28;20241;-73
2024/03/18 01:01:42;;;;;;;2.30;1.40;;;8.90;99.90;;;;;;2066459;28;20316;-73
2024/03/18 01:02:42;;;;;;;6.17;2.00;;;8.90;99.90;;;;;;2081318;28;20606;-73
2024/03/18 01:03:43;;;;;;;2.60;1.63;;;8.90;99.90;;;;;;2089852;28;20215;-73
2024/03/18 01:04:44;;;;;;;3.60;1.70;;;8.90;99.90;;;;;;2087394;28;20220;-73
2024/03/18 01:05:44;;;;;;;3.23;1.70;;;8.90;99.90;;;;;;2088158;28;20265;-73
2024/03/18 01:06:45;;;;;;;2.60;1.70;;;8.90;99.90;;;;;;2073266;28;20340;-73
2024/03/18 01:07:46;;;;;;;4.37;1.90;;;8.90;99.90;;;;;;2065875;28;20244;-73
2024/03/18 01:08:47;;;;;;;3.40;1.70;;;8.90;99.90;;;;;;2064791;28;20233;-73
2024/03/18 01:09:49;;;;;;;3.05;2.00;;;8.90;99.90;;;;;;2065216;28;20229;-73
2024/03/18 01:10:50;;;;;;;3.60;2.10;;;8.90;99.90;;;;;;2074339;28;20232;-73
2024/03/18 01:11:50;;;;;;;4.23;1.57;;;8.80;99.90;;;;;;2072199;28;20263;-73
2024/03/18 01:12:51;;;;;;;2.13;1.63;;;8.80;99.90;;;;;;2074018;28;20222;-73
2024/03/18 01:13:52;;;;;;;2.83;1.73;;;8.80;99.90;;;;;;2066776;28;20716;-73
2024/03/18 01:14:52;;;;;;;1.90;1.57;;;8.80;99.90;;;;;;2063476;28;20225;-73
2024/03/18 01:15:53;;;;;;;3.93;1.93;;;8.80;99.90;;;;;;2057175;28;20225;-73
2024/03/18 01:16:54;;;;;;;2.83;1.80;;;8.80;99.90;;;;;;2051906;28;20230;-73
2024/03/18 01:17:54;;;;;;;2.17;1.70;;;8.80;99.90;;;;;;2065964;28;20225;-73
2024/03/18 01:18:55;;;;;;;1.83;1.60;;;8.80;99.90;;;;;;2065471;28;20237;-73
2024/03/18 01:19:56;;;;;;;2.10;1.60;;;8.80;99.90;;;;;;2065919;28;20250;-73
2024/03/18 01:20:57;;;;;;;2.83;1.43;;;8.80;99.90;;;;;;2058272;28;20316;-73
2024/03/18 01:21:58;;;;;;;4.82;1.60;;;8.80;99.90;;;;;;2063514;28;20276;-73
2024/03/18 01:23:03;;;;;;;2.13;1.48;;;8.80;99.90;;;;;;2066457;28;20222;-73
2024/03/18 01:24:04;;;;;;;2.50;1.70;;;8.80;99.90;;;;;;2065299;28;20224;-73
2024/03/18 01:25:05;;;;;;;3.47;1.70;;;8.80;99.90;;;;;;2074840;28;20193;-74
2024/03/18 01:26:07;;;;;;;6.23;2.13;;;8.70;99.90;;;;;;2065067;28;20204;-73
2024/03/18 01:27:08;;;;;;;3.45;1.63;;;8.70;99.90;;;;;;2065345;28;20192;-73
2024/03/18 01:28:08;;;;;;;2.47;1.47;;;8.60;99.90;;;;;;2055961;28;20302;-73
2024/03/18 01:29:10;;;;;;;5.03;2.00;;;8.60;99.90;;;;;;2080670;28;20185;-73
2024/03/18 01:30:13;;;;;;;2.20;1.40;;;8.60;99.90;;;;;;2077515;28;20805;-73
2024/03/18 01:31:14;;;;;;;4.35;1.90;;;8.60;99.90;;;;;;2059875;28;20277;-74
2024/03/18 01:32:14;;;;;;;2.87;1.60;;;8.60;99.90;;;;;;2063033;28;20187;-74
2024/03/18 01:33:15;;;;;;;2.57;1.77;;;8.50;99.90;;;;;;2068524;28;20300;-75
2024/03/18 01:34:16;;;;;;;1.87;1.40;;;8.50;99.90;;;;;;2080534;28;20264;-75
2024/03/18 01:35:17;;;;;;;2.70;1.63;;;8.50;99.90;;;;;;2074659;28;20212;-73
2024/03/18 01:36:19;;;;;;;2.42;1.40;;;8.40;99.90;;;;;;2059709;28;20175;-75
2024/03/18 01:37:20;;;;;;;4.73;2.03;;;8.40;99.90;;;;;;2066807;28;29934;-75
2024/03/18 01:38:21;;;;;;;3.20;1.57;;;8.40;99.90;;;;;;2075126;28;20264;-74
2024/03/18 01:39:21;;;;;;;2.80;1.67;;;8.40;99.90;;;;;;2089999;28;20816;-76
2024/03/18 01:40:22;;;;;;;2.40;1.50;;;8.30;99.90;;;;;;2080954;28;20924;-74
2024/03/18 01:41:23;;;;;;;7.20;1.90;;;8.30;99.90;;;;;;2067115;28;20239;-73
2024/03/18 01:42:24;;;;;;;4.13;1.50;;;8.20;99.90;;;;;;2074818;28;20232;-74
2024/03/18 01:43:24;;;;;;;2.73;1.93;;;8.20;99.90;;;;;;2088590;28;21021;-74
2024/03/18 01:44:25;;;;;;;2.23;1.67;;;8.20;99.90;;;;;;2076499;28;20225;-74
2024/03/18 01:45:26;;;;;;;3.07;1.87;;;8.20;99.90;;;;;;2081649;28;20224;-74
2024/03/18 01:46:27;;;;;;;2.40;1.63;;;8.20;99.90;;;;;;2081171;28;20220;-73
2024/03/18 01:47:28;;;;;;;2.05;1.40;;;8.10;99.90;;;;;;2075684;28;20279;-72
2024/03/18 01:48:29;;;;;;;5.70;2.20;;;8.10;99.90;;;;;;2075033;28;20255;-73
2024/03/18 01:49:30;;;;;;;2.17;1.40;;;8.10;99.90;;;;;;2074746;28;20221;-74
2024/03/18 01:50:31;;;;;;;1.98;1.40;;;8.10;99.90;;;;;;2075639;28;20232;-73
2024/03/18 01:51:32;;;;;;;4.03;1.58;;;8.00;99.90;;;;;;2082387;28;20227;-74
2024/03/18 01:52:33;;;;;;;3.75;1.92;;;8.00;99.90;;;;;;2067178;28;20260;-74
2024/03/18 01:53:33;;;;;;;3.20;1.57;;;8.00;99.90;;;;;;2066792;28;20241;-74
2024/03/18 01:54:34;;;;;;;4.53;1.63;;;8.00;99.90;;;;;;2068394;28;20236;-74
2024/03/18 01:55:35;;;;;;;3.30;1.87;;;8.00;99.90;;;;;;2075078;28;20279;-74
2024/03/18 01:56:35;;;;;;;4.53;1.50;;;8.00;99.90;;;;;;2081947;28;20697;-74
2024/03/18 01:57:36;;;;;;;2.30;1.60;;;8.00;99.90;;;;;;2052246;28;20234;-75
2024/03/18 01:58:43;;;;;;;2.60;1.40;;;8.00;99.90;;;;;;2050717;28;20231;-73
2024/03/18 01:59:44;;;;;;;1.88;1.55;;;8.00;99.90;;;;;;2071576;28;20233;-75
2024/03/18 02:00:46;;;;;;;3.80;1.90;;;8.00;99.90;;;;;;2070815;28;20237;-74
2024/03/18 02:01:46;;;;;;;3.97;1.52;;;8.00;99.90;;;;;;2065701;28;20230;-74
2024/03/18 02:02:47;;;;;;;2.90;1.67;;;8.00;99.90;;;;;;2061819;28;20264;-74
2024/03/18 02:03:52;;;;;;;7.43;2.20;;;8.00;99.90;;;;;;2066851;28;20369;-74
2024/03/18 02:04:53;;;;;;;2.60;1.77;;;8.00;99.90;;;;;;2065030;28;20642;-74
2024/03/18 02:05:54;;;;;;;2.60;1.60;;;8.00;99.90;;;;;;2073788;28;20316;-75
2024/03/18 02:06:54;;;;;;;3.23;1.60;;;8.00;99.90;;;;;;2075351;28;20686;-74
2024/03/18 02:07:56;;;;;;;2.07;1.70;;;8.00;99.90;;;;;;2066815;28;20328;-73
2024/03/18 02:08:56;;;;;;;3.00;1.67;;;8.10;99.90;;;;;;2066535;28;20238;-74
2024/03/18 02:09:57;;;;;;;1.93;1.40;;;8.10;99.90;;;;;;2067541;28;20257;-74
2024/03/18 02:10:58;;;;;;;2.83;1.67;;;8.10;99.90;;;;;;2070776;28;20865;-74
2024/03/18 02:11:59;;;;;;;2.00;1.70;;;8.10;99.90;;;;;;2074195;28;20221;-73
2024/03/18 02:13:01;;;;;;;3.63;1.60;;;8.20;99.90;;;;;;2076075;28;20223;-74
2024/03/18 02:14:02;;;;;;;3.20;1.65;;;8.20;99.90;;;;;;2072105;28;20461;-72
2024/03/18 02:15:03;;;;;;;1.93;1.57;;;8.20;99.90;;;;;;2085241;28;20264;-72
2024/03/18 02:16:05;;;;;;;2.42;1.80;;;8.20;99.90;;;;;;2087572;28;20195;-74
2024/03/18 02:17:05;;;;;;;3.20;1.70;;;8.20;99.90;;;;;;2073981;28;20270;-74
2024/03/18 02:18:06;;;;;;;2.27;1.73;;;8.20;99.90;;;;;;2074513;28;20178;-74
2024/03/18 02:19:07;;;;;;;3.30;1.70;;;8.20;99.90;;;;;;2075259;28;20223;-75
2024/03/18 02:20:09;;;;;;;4.87;2.30;;;8.20;99.90;;;;;;2073784;28;20205;-74
2024/03/18 02:21:10;;;;;;;2.67;1.67;;;8.20;99.90;;;;;;2074546;28;20499;-73
2024/03/18 02:22:11;;;;;;;4.27;1.53;;;8.20;99.90;;;;;;2074539;28;20185;-73
2024/03/18 02:23:13;;;;;;;2.83;1.60;;;8.20;99.90;;;;;;2071595;28;20198;-73
2024/03/18 02:24:14;;;;;;;4.35;1.67;;;8.20;99.90;;;;;;2075324;28;20228;-74
2024/03/18 02:25:16;;;;;;;3.60;2.20;;;8.20;99.90;;;;;;2074514;28;20260;-74
2024/03/18 02:26:16;;;;;;;2.92;2.00;;;8.30;99.90;;;;;;2074264;28;20188;-74
2024/03/18 02:27:17;;;;;;;2.63;1.70;;;8.30;99.90;;;;;;2074996;28;20271;-73
2024/03/18 02:28:18;;;;;;;1.98;1.33;;;8.30;99.90;;;;;;2073575;28;20596;-74
2024/03/18 02:29:19;;;;;;;2.00;1.50;;;8.30;99.90;;;;;;2074637;28;20200;-74
2024/03/18 02:30:19;;;;;;;2.47;1.90;;;8.40;99.90;;;;;;2068960;28;20818;-73
2024/03/18 02:31:20;;;;;;;5.07;1.80;;;8.30;99.90;;;;;;2073837;28;20219;-74
2024/03/18 02:32:21;;;;;;;2.87;2.00;;;8.30;99.90;;;;;;2081986;28;20382;-74
2024/03/18 02:33:21;;;;;;;3.53;1.60;;;8.20;99.90;;;;;;2081165;28;20263;-74
2024/03/18 02:34:22;;;;;;;2.87;1.60;;;8.20;99.90;;;;;;2073124;28;20251;-74
2024/03/18 02:35:23;;;;;;;2.57;1.67;;;8.30;99.90;;;;;;2072367;28;20229;-74
2024/03/18 02:36:24;;;;;;;4.57;1.87;;;8.30;99.90;;;;;;2064613;28;20704;-74
2024/03/18 02:37:25;;;;;;;2.43;1.60;;;8.20;99.90;;;;;;2073844;28;20370;-73
2024/03/18 02:38:25;;;;;;;2.87;1.43;;;8.20;99.90;;;;;;2071739;28;20235;-74
2024/03/18 02:39:26;;;;;;;2.87;1.67;;;8.20;99.90;;;;;;2063873;28;20232;-73
2024/03/18 02:40:27;;;;;;;3.40;1.60;;;8.20;99.90;;;;;;2056456;28;20243;-74
2024/03/18 02:41:28;;;;;;;2.30;1.47;;;8.20;99.90;;;;;;2064808;28;20236;-74
2024/03/18 02:42:28;;;;;;;1.73;1.40;;;8.20;99.90;;;;;;2073864;28;20727;-74
2024/03/18 02:43:29;;;;;;;2.10;1.27;;;8.30;99.90;;;;;;2072927;28;20235;-74
2024/03/18 02:44:30;;;;;;;2.40;1.30;;;8.30;99.90;;;;;;2065991;28;20229;-74
2024/03/18 02:45:31;;;;;;;3.23;1.20;;;8.30;99.90;;;;;;2077648;28;20228;-73
2024/03/18 02:46:32;;;;;;;1.95;1.30;;;8.30;99.90;;;;;;2076367;28;20302;-73
2024/03/18 02:47:33;;;;;;;3.38;2.05;;;8.30;99.90;;;;;;2056300;28;20701;-73
2024/03/18 02:48:33;;;;;;;1.70;1.30;;;8.30;99.90;;;;;;2056808;28;20313;-73
2024/03/18 02:49:34;;;;;;;3.13;1.67;;;8.30;99.90;;;;;;2072508;28;20232;-74
2024/03/18 02:50:35;;;;;;;5.10;1.88;;;8.40;99.90;;;;;;2073011;28;20233;-73
2024/03/18 02:51:36;;;;;;;2.70;1.87;;;8.40;99.90;;;;;;2080501;28;20232;-74
2024/03/18 02:52:39;;;;;;;1.97;1.30;;;8.30;99.90;;;;;;2072467;28;20217;-74
2024/03/18 02:53:40;;;;;;;3.30;1.73;;;8.30;99.90;;;;;;2066553;28;20372;-73
2024/03/18 02:54:40;;;;;;;2.83;1.50;;;8.30;99.90;;;;;;2073214;28;20784;-73
2024/03/18 02:55:41;;;;;;;2.67;1.33;;;8.40;99.90;;;;;;2073492;28;20251;-73
2024/03/18 02:56:42;;;;;;;1.40;1.30;;;8.30;99.90;;;;;;2065131;28;20230;-74
2024/03/18 02:57:43;;;;;;;1.60;1.40;;;8.30;99.90;;;;;;2064356;28;20700;-74
2024/03/18 02:58:43;;;;;;;1.63;1.53;;;8.30;99.90;;;;;;2073227;28;20498;-73
2024/03/18 02:59:44;;;;;;;4.30;1.50;;;8.30;99.90;;;;;;2073732;28;20794;-75
2024/03/18 03:00:45;;;;;;;3.03;1.70;;;8.30;99.90;;;;;;2072254;28;20257;-74
2024/03/18 03:01:49;;;;;;;2.23;1.20;;;8.30;99.90;;;;;;2065249;28;20664;-74
2024/03/18 03:02:50;;;;;;;2.78;1.45;;;8.30;99.90;;;;;;2072798;28;20241;-73
2024/03/18 03:04:00;;;;;;;3.33;1.53;;;8.40;99.90;;;;;;2074280;28;20328;-74
2024/03/18 03:05:01;;;;;;;1.45;1.10;;;8.40;99.90;;;;;;2066726;28;20233;-73
2024/03/18 03:06:01;;;;;;;2.27;1.40;;;8.40;99.90;;;;;;2057071;28;20803;-72
2024/03/18 03:07:03;;;;;;;2.60;1.40;;;8.50;99.90;;;;;;2056236;28;20429;-73
2024/03/18 03:08:03;;;;;;;1.80;1.35;;;8.50;99.90;;;;;;2074153;28;20271;-72
2024/03/18 03:09:04;;;;;;;3.50;1.40;;;8.50;99.90;;;;;;2074209;28;20197;-73
2024/03/18 03:10:06;;;;;;;1.67;1.50;;;8.50;99.90;;;;;;2074962;28;20240;-73
2024/03/18 03:11:06;;;;;;;2.65;1.65;;;8.50;99.90;;;;;;2074344;28;20180;-74
2024/03/18 03:12:09;;;;;;;1.77;1.40;;;8.50;99.90;;;;;;2067664;28;20663;-73
2024/03/18 03:13:09;;;;;;;2.55;1.60;;;8.50;99.90;;;;;;2077770;28;20205;-74
2024/03/18 03:14:10;;;;;;;2.70;1.43;;;8.50;99.90;;;;;;2079207;28;20191;-75
2024/03/18 03:15:11;;;;;;;2.53;1.52;;;8.50;99.90;;;;;;2064198;28;20278;-73
2024/03/18 03:16:12;;;;;;;2.80;1.40;;;8.50;99.90;;;;;;2073706;28;20181;-73
2024/03/18 03:17:13;;;;;;;5.97;1.23;;;8.50;99.90;;;;;;2073691;28;20188;-72
2024/03/18 03:18:14;;;;;;;2.40;1.47;;;8.60;99.90;;;;;;2078669;28;20199;-74
2024/03/18 03:19:15;;;;;;;1.70;1.20;;;8.50;99.90;;;;;;2073757;28;20695;-74
2024/03/18 03:20:20;;;;;;;2.40;1.23;;;8.50;99.90;;;;;;2066003;28;20190;-74
2024/03/18 03:21:21;;;;;;;2.13;1.55;;;8.50;99.90;;;;;;2083522;28;20322;-74
2024/03/18 03:22:22;;;;;;;1.83;1.43;;;8.60;99.90;;;;;;2081534;28;20228;-74
2024/03/18 03:23:22;;;;;;;2.30;1.20;;;8.50;99.90;;;;;;2064760;28;20229;-74
2024/03/18 03:24:27;;;;;;;1.93;1.20;;;8.50;99.90;;;;;;2066616;28;20229;-73
2024/03/18 03:25:28;;;;;;;3.00;1.60;;;8.50;99.90;;;;;;2074046;28;20223;-74
2024/03/18 03:26:29;;;;;;;2.73;1.33;;;8.50;99.90;;;;;;2083024;28;20231;-73
2024/03/18 03:27:32;;;;;;;2.45;1.40;;;8.50;99.90;;;;;;2074224;28;20233;-73
2024/03/18 03:28:32;;;;;;;2.05;1.20;;;8.50;99.90;;;;;;2074170;28;20239;-73
2024/03/18 03:29:33;;;;;;;5.63;1.50;;;8.60;99.90;;;;;;2074401;28;20279;-74
2024/03/18 03:30:34;;;;;;;1.83;1.13;;;8.60;99.90;;;;;;2089251;28;20316;-73
2024/03/18 03:31:35;;;;;;;1.38;1.15;;;8.60;99.90;;;;;;2086068;28;20227;-74
2024/03/18 03:32:36;;;;;;;1.97;1.40;;;8.60;99.90;;;;;;2086872;28;20255;-74
2024/03/18 03:33:40;;;;;;;3.50;1.53;;;8.50;99.90;;;;;;2079892;28;20236;-73
2024/03/18 03:34:40;;;;;;;3.13;1.50;;;8.50;99.90;;;;;;2050559;28;21003;-74
2024/03/18 03:35:41;;;;;;;2.17;1.33;;;8.50;99.90;;;;;;2057914;28;20218;-74
2024/03/18 03:36:44;;;;;;;1.90;1.30;;;8.50;99.90;;;;;;2073496;28;20252;-75
2024/03/18 03:37:44;;;;;;;3.22;1.40;;;8.50;99.90;;;;;;2074800;28;20259;-74
2024/03/18 03:38:45;;;;;;;2.13;1.30;;;8.50;99.90;;;;;;2072967;28;20642;-73
2024/03/18 03:39:46;;;;;;;2.10;1.30;;;8.60;99.90;;;;;;2073636;28;20225;-74
2024/03/18 03:40:51;;;;;;;1.90;1.43;;;8.60;99.90;;;;;;2073737;28;20287;-74
2024/03/18 03:41:52;;;;;;;3.95;1.40;;;8.60;99.90;;;;;;2070091;28;20228;-73
2024/03/18 03:42:53;;;;;;;3.73;1.40;;;8.50;99.90;;;;;;2073812;28;20269;-74
2024/03/18 03:43:53;;;;;;;3.60;1.50;;;8.50;99.90;;;;;;2071734;28;20225;-73
2024/03/18 03:44:54;;;;;;;4.20;1.63;;;8.40;99.90;;;;;;2062973;28;20562;-74
2024/03/18 03:45:59;;;;;;;2.13;1.40;;;8.40;99.90;;;;;;2072721;28;20291;-74
2024/03/18 03:47:00;;;;;;;2.13;1.42;;;8.40;99.90;;;;;;2067692;28;20229;-74
2024/03/18 03:48:00;;;;;;;2.60;1.60;;;8.40;99.90;;;;;;2065363;28;20229;-75
2024/03/18 03:49:03;;;;;;;4.00;1.50;;;8.40;99.90;;;;;;2072372;28;20217;-74
2024/03/18 03:50:04;;;;;;;1.98;1.17;;;8.40;99.90;;;;;;2064610;28;20209;-73
2024/03/18 03:51:05;;;;;;;2.35;1.48;;;8.40;99.90;;;;;;2065516;28;20249;-74
2024/03/18 03:52:06;;;;;;;1.80;1.40;;;8.50;99.90;;;;;;2066060;28;20186;-73
2024/03/18 03:53:06;;;;;;;2.33;1.57;;;8.50;99.90;;;;;;2065279;28;20214;-73
2024/03/18 03:54:07;;;;;;;2.47;1.60;;;8.50;99.90;;;;;;2064976;28;20687;-73
2024/03/18 03:55:08;;;;;;;1.60;1.50;;;8.50;99.90;;;;;;2063541;28;20205;-73
2024/03/18 03:56:09;;;;;;;3.47;1.45;;;8.40;99.90;;;;;;2070772;28;20353;-74
2024/03/18 03:57:11;;;;;;;2.03;1.30;;;8.30;99.90;;;;;;2072648;28;20575;-73
2024/03/18 03:58:13;;;;;;;1.70;1.13;;;8.20;99.90;;;;;;2071482;28;20247;-74
2024/03/18 03:59:14;;;;;;;1.73;1.27;;;8.20;99.90;;;;;;2064426;28;20618;-75
2024/03/18 04:00:15;;;;;;;5.53;1.67;;;8.10;99.90;;;;;;2064731;28;21002;-74
2024/03/18 04:01:18;;;;;;;1.98;1.35;;;8.10;99.90;;;;;;2064745;28;20196;-74
2024/03/18 04:02:19;;;;;;;2.00;1.17;;;8.10;99.90;;;;;;2064798;28;21009;-74
2024/03/18 04:03:24;;;;;;;4.37;1.40;;;8.20;99.90;;;;;;2065553;28;20214;-74
2024/03/18 04:04:25;;;;;;;1.95;1.20;;;8.20;99.90;;;;;;2064415;28;20307;-74
2024/03/18 04:05:26;;;;;;;1.60;1.30;;;8.20;99.90;;;;;;2065415;28;20267;-74
2024/03/18 04:06:27;;;;;;;3.97;1.63;;;8.30;99.90;;;;;;2072610;28;20498;-74
2024/03/18 04:07:27;;;;;;;2.33;1.57;;;8.30;99.90;;;;;;2074561;28;20236;-73
2024/03/18 04:08:28;;;;;;;3.30;1.40;;;8.30;99.90;;;;;;2071687;28;20232;-74
2024/03/18 04:09:29;;;;;;;2.30;2.00;;;8.30;99.90;;;;;;2056276;28;20261;-74
2024/03/18 04:10:29;;;;;;;2.33;1.50;;;8.30;99.90;;;;;;2064402;28;20691;-74
2024/03/18 04:11:30;;;;;;;1.90;1.50;;;8.30;99.90;;;;;;2064218;28;20308;-74
2024/03/18 04:12:31;;;;;;;2.10;1.70;;;8.30;99.90;;;;;;2072883;28;20622;-73
2024/03/18 04:13:31;;;;;;;2.00;1.40;;;8.30;99.90;;;;;;2065706;28;20229;-73
2024/03/18 04:14:32;;;;;;;3.77;1.33;;;8.30;99.90;;;;;;2064551;28;20822;-73
2024/03/18 04:15:33;;;;;;;1.63;1.40;;;8.40;99.90;;;;;;2073660;28;20359;-73
2024/03/18 04:16:34;;;;;;;2.10;1.33;;;8.40;99.90;;;;;;2073373;28;20247;-74
2024/03/18 04:17:34;;;;;;;3.20;1.30;;;8.40;99.90;;;;;;2072724;28;20872;-74
2024/03/18 04:18:35;;;;;;;4.17;1.50;;;8.30;99.90;;;;;;2064547;28;20311;-74
2024/03/18 04:19:40;;;;;;;4.27;1.50;;;8.30;99.90;;;;;;2064099;28;20269;-74
2024/03/18 04:20:40;;;;;;;2.47;1.50;;;8.30;99.90;;;;;;2072941;28;20700;-74
2024/03/18 04:21:41;;;;;;;2.83;1.47;;;8.30;99.90;;;;;;2072554;28;20267;-74
2024/03/18 04:22:42;;;;;;;1.63;1.30;;;8.30;99.90;;;;;;2065477;28;20226;-74
2024/03/18 04:23:42;;;;;;;3.03;1.40;;;8.40;99.90;;;;;;2064906;28;20234;-74
2024/03/18 04:24:43;;;;;;;3.07;1.30;;;8.40;99.90;;;;;;2072942;28;20236;-74
2024/03/18 04:25:44;;;;;;;2.37;1.53;;;8.40;99.90;;;;;;2073681;28;20233;-73
2024/03/18 04:26:46;;;;;;;2.47;1.47;;;8.40;99.90;;;;;;2072000;28;20590;-73
2024/03/18 04:27:48;;;;;;;2.38;1.50;;;8.40;99.90;;;;;;2064256;28;20287;-74
2024/03/18 04:28:48;;;;;;;3.35;1.60;;;8.40;99.90;;;;;;2064829;28;20229;-74
2024/03/18 04:29:49;;;;;;;2.03;1.53;;;8.40;99.90;;;;;;2066544;28;20240;-74
2024/03/18 04:30:49;;;;;;;2.30;1.40;;;8.50;99.90;;;;;;2064762;28;20365;-74
2024/03/18 04:31:50;;;;;;;2.03;1.40;;;8.50;99.90;;;;;;2064249;28;20234;-74
2024/03/18 04:32:51;;;;;;;7.13;1.90;;;8.50;99.90;;;;;;2056929;28;20227;-73
2024/03/18 04:33:51;;;;;;;1.93;1.50;;;8.40;99.90;;;;;;2064931;28;20229;-74
2024/03/18 04:34:52;;;;;;;2.83;1.37;;;8.40;99.90;;;;;;2064604;28;20580;-73
2024/03/18 04:35:53;;;;;;;2.33;1.20;;;8.30;99.90;;;;;;2066000;28;20230;-73
2024/03/18 04:36:53;;;;;;;3.33;1.70;;;8.30;99.90;;;;;;2074213;28;20222;-73
2024/03/18 04:37:55;;;;;;;1.87;1.40;;;8.40;99.90;;;;;;2063965;28;20781;-74
2024/03/18 04:38:56;;;;;;;2.40;1.60;;;8.40;99.90;;;;;;2058443;28;20222;-74
2024/03/18 04:39:56;;;;;;;2.87;1.87;;;8.40;99.90;;;;;;2073665;28;20316;-74
2024/03/18 04:41:01;;;;;;;1.67;1.37;;;8.40;99.90;;;;;;2079776;28;20232;-74
2024/03/18 04:42:05;;;;;;;4.43;1.90;;;8.40;99.90;;;;;;2072789;28;20229;-73
2024/03/18 04:43:06;;;;;;;2.17;1.50;;;8.40;99.90;;;;;;2073743;28;20259;-74
2024/03/18 04:44:07;;;;;;;2.80;1.70;;;8.40;99.90;;;;;;2074115;28;20242;-72
2024/03/18 04:45:09;;;;;;;6.27;2.00;;;8.40;99.90;;;;;;2072829;28;20195;-74
2024/03/18 04:46:10;;;;;;;4.72;1.90;;;8.40;99.90;;;;;;2072262;28;20658;-73
2024/03/18 04:47:11;;;;;;;3.83;2.10;;;8.40;99.90;;;;;;2073226;28;20188;-73
2024/03/18 04:48:12;;;;;;;2.40;1.83;;;8.40;99.90;;;;;;2063916;28;20325;-72
2024/03/18 04:49:13;;;;;;;1.55;1.45;;;8.40;99.90;;;;;;2062821;28;20182;-73
2024/03/18 04:50:15;;;;;;;2.00;1.77;;;8.40;99.90;;;;;;2074207;28;20205;-73
2024/03/18 04:51:16;;;;;;;3.67;1.92;;;8.50;99.90;;;;;;2064516;28;20802;-75
2024/03/18 04:52:17;;;;;;;1.60;1.50;;;8.50;99.90;;;;;;2062788;28;20185;-74
2024/03/18 04:53:18;;;;;;;2.30;1.70;;;8.50;99.90;;;;;;2064659;28;20225;-75
2024/03/18 04:54:19;;;;;;;2.93;1.80;;;8.50;99.90;;;;;;2066283;28;20778;-74
2024/03/18 04:55:21;;;;;;;2.10;1.60;;;8.50;99.90;;;;;;2064306;28;20193;-73
2024/03/18 04:56:22;;;;;;;2.80;1.88;;;8.50;99.90;;;;;;2064134;28;20232;-73
2024/03/18 04:57:23;;;;;;;2.90;1.60;;;8.50;99.90;;;;;;2073609;28;20235;-73
2024/03/18 04:58:23;;;;;;;2.50;1.83;;;8.40;99.90;;;;;;2072700;28;20232;-73
2024/03/18 04:59:25;;;;;;;1.70;1.60;;;8.50;99.90;;;;;;2072877;28;20319;-73
2024/03/18 05:00:26;;;;;;;1.80;1.50;;;8.50;99.90;;;;;;2074655;28;20232;-75
2024/03/18 05:01:27;;;;;;;2.60;1.90;;;8.50;99.90;;;;;;2065768;28;20227;-74
2024/03/18 05:02:28;;;;;;;1.47;1.30;;;8.50;99.90;;;;;;2072725;28;20231;-74
2024/03/18 05:03:29;;;;;;;3.67;1.52;;;8.50;99.90;;;;;;2073460;28;20714;-74
2024/03/18 05:04:30;;;;;;;1.90;1.50;;;8.50;99.90;;;;;;2073625;28;20232;-73
2024/03/18 05:05:31;;;;;;;4.20;1.55;;;8.50;99.90;;;;;;2072688;28;20339;-74
2024/03/18 05:06:32;;;;;;;2.10;1.50;;;8.60;99.90;;;;;;2064076;28;20263;-73
2024/03/18 05:07:33;;;;;;;1.73;1.47;;;8.50;99.90;;;;;;2066549;28;20229;-74
2024/03/18 05:08:34;;;;;;;2.13;1.60;;;8.50;99.90;;;;;;2070237;28;20600;-75
2024/03/18 05:09:34;;;;;;;1.73;1.60;;;8.40;99.90;;;;;;2066470;28;20240;-74
2024/03/18 05:10:35;;;;;;;2.43;1.53;;;8.40;99.90;;;;;;2082638;28;20671;-74
2024/03/18 05:11:36;;;;;;;4.03;1.50;;;8.30;99.90;;;;;;2078513;28;20232;-74
2024/03/18 05:12:38;;;;;;;1.63;1.40;;;8.30;99.90;;;;;;2078687;28;20315;-76
2024/03/18 05:13:39;;;;;;;4.60;1.45;;;8.30;99.90;;;;;;2078567;28;20787;-75
2024/03/18 05:14:39;;;;;;;1.95;1.48;;;8.30;99.90;;;;;;2075084;28;20348;-75
2024/03/18 05:15:40;;;;;;;1.93;1.60;;;8.20;99.90;;;;;;2074321;28;20275;-73
2024/03/18 05:16:41;;;;;;;6.10;1.90;;;8.20;99.90;;;;;;2062632;28;20230;-73
2024/03/18 05:17:43;;;;;;;2.63;1.67;;;8.30;99.90;;;;;;2061918;28;20229;-74
2024/03/18 05:18:44;;;;;;;2.70;1.45;;;8.30;99.90;;;;;;2062331;28;20297;-75
2024/03/18 05:19:45;;;;;;;3.23;1.67;;;8.30;99.90;;;;;;2067574;28;20257;-74
2024/03/18 05:20:46;;;;;;;3.43;1.60;;;8.30;99.90;;;;;;2058922;28;20475;-74
2024/03/18 05:21:46;;;;;;;2.27;1.77;;;8.30;99.90;;;;;;2049824;28;20265;-74
2024/03/18 05:22:47;;;;;;;2.50;1.70;;;8.30;99.90;;;;;;2058918;28;20269;-73
2024/03/18 05:23:48;;;;;;;1.90;1.40;;;8.30;99.90;;;;;;2066109;28;20304;-74